logo tempoitalia

Diretta Meteo Sedalia Memorial, Stati Uniti (USA)lunedì 31 agosto ore 00:53

Mappa
Sereno 25 °C Sereno 24 Ore: T.min 22 T.max 36
Ponente Sud Km/h 14.8 Punto di rugiada: 17 °C Umidità: 61% Visibilità: 10 Km
Il sole sorge alle: 06:41 Il sole tramonta alle: 19:44
31 Agosto 2026 00:53 tempo osservato: Sereno Sereno 25 61 1015 vento: Nord S 14.8
30 Agosto 2026 23:53 tempo osservato: Sereno Sereno 26 57 1014 vento: Nord S 14.8
30 Agosto 2026 22:53 tempo osservato: Sereno Sereno 26 61 1014 vento: Nord S 14.8
30 Agosto 2026 21:53 tempo osservato: Sereno Sereno 26 61 1014 vento: Nord S 13
30 Agosto 2026 20:53 tempo osservato: Sereno Sereno 27 61 1014 vento: Nord S 11.1
30 Agosto 2026 19:53 tempo osservato: Sereno Sereno 28 58 1012 vento: Nord S/SE 13
30 Agosto 2026 18:53 tempo osservato: Sereno Sereno 32 52 1013 vento: Nord S 11.1
30 Agosto 2026 17:53 tempo osservato: Sereno Sereno 34 38 1013 vento: Nord S 14.8
30 Agosto 2026 16:53 tempo osservato: Sereno Sereno 36 34 1013 vento: Nord S 20.3
30 Agosto 2026 15:53 tempo osservato: Sereno Sereno 36 34 1014 vento: Nord S 16.7
30 Agosto 2026 14:53 tempo osservato: Sereno Sereno 35 36 1014 vento: Nord S/SO 14.8
30 Agosto 2026 13:53 tempo osservato: Sereno Sereno 34 38 1015 vento: Nord S/SO 22.2
30 Agosto 2026 12:53 tempo osservato: Sereno Sereno 32 43 1015 vento: Nord S/SO 20.3
30 Agosto 2026 11:53 tempo osservato: Sereno Sereno 32 40 1016 vento: Nord S/SO 20.3
30 Agosto 2026 10:53 tempo osservato: Sereno Sereno 31 43 1016 vento: Nord S/SO 24
30 Agosto 2026 09:53 tempo osservato: Sereno Sereno 28 51 1016 vento: Nord S/SO 25.9
30 Agosto 2026 08:53 tempo osservato: Sereno Sereno 26 54 1015 vento: Nord S/SO 18.5
30 Agosto 2026 07:53 tempo osservato: Sereno Sereno 23 64 1016 vento: Nord S 18.5
30 Agosto 2026 06:53 tempo osservato: Sereno Sereno 22 64 1016 vento: Nord S 16.7
30 Agosto 2026 05:53 tempo osservato: Sereno Sereno 22 64 1016 vento: Nord S 16.7
30 Agosto 2026 04:53 tempo osservato: Sereno Sereno 22 64 1015 vento: Nord S 16.7
30 Agosto 2026 03:53 tempo osservato: Sereno Sereno 22 64 1015 vento: Nord S 16.7
30 Agosto 2026 02:53 tempo osservato: Sereno Sereno 23 56 1015 vento: Nord S 14.8
30 Agosto 2026 01:53 tempo osservato: Sereno Sereno 22 64 1015 vento: Nord S 14.8